• Join FlightAware (Why Join?)
  • Login
  • US Flag 
02:50AM EDT


 

Airport Tracker/Info


-or-


 

Live Flight TrackerFlight Track Log ✈ EJA846 ✈ 27-Apr-2013 ✈ KIAH - KLIT

Flight Track Log - Related Links

Times and Time Zones

All times are in EDT time to prevent confusion due to time zone crossing. See the EJA846 flight status page for this flight to view local times or setup timezone preferences in your user account.

Time Position Orientation Groundspeed Altitude Reporting Facility
EDT Latitude Longitude Course Direction KTS MPH feet Rate Location/Type
08:58AM 29.9661 -95.3456 186° South 174 200 600  Level Houston Center
08:59AM 29.9142 -95.3517 186° South 250 288 3,500 1,800 Climbing Houston Center
09:00AM 29.9281 -95.4086 286° West 264 304 4,000 240 Climbing Houston Center
09:01AM 30.0019 -95.3917 11° North 278 320 4,000  Level Houston Center
09:02AM 30.0747 -95.3517 25° Northeast 284 327 4,100 660 Climbing Houston Center
09:03AM 30.1539 -95.3083 25° Northeast 287 330 5,400 2,160 Climbing Houston Center
09:04AM 30.2208 -95.2717 25° Northeast 289 333 8,600 3,000 Climbing Houston Center
09:05AM 30.2967 -95.2292 26° Northeast 294 338 11,700 2,220 Climbing Houston Center
09:06AM 30.3850 -95.1864 23° Northeast 328 377 13,200 1,680 Climbing Houston Center
09:07AM 30.4969 -95.1239 26° Northeast 355 409 15,200 1,800 Climbing Houston Center
09:08AM 30.5936 -95.0711 25° Northeast 369 425 17,000 1,620 Climbing Houston Center
09:09AM 30.6931 -95.0117 27° Northeast 386 444 18,600 1,620 Climbing Houston Center
09:10AM 30.7931 -94.9483 29° Northeast 398 458 20,400 1,620 Climbing Houston Center
09:11AM 30.8933 -94.8847 29° Northeast 406 467 22,000 1,620 Climbing Houston Center
09:11AM 30.9392 -94.8583 26° Northeast 392 451 22,700 1,560 Climbing Fort Worth Center
09:12AM 31.0422 -94.7950 28° Northeast 403 464 24,200 1,320 Climbing Fort Worth Center
09:13AM 31.1411 -94.7339 28° Northeast 418 481 25,400 1,080 Climbing Fort Worth Center
09:14AM 31.2419 -94.6631 31° Northeast 424 488 26,400 960 Climbing Fort Worth Center
09:15AM 31.3489 -94.5917 30° Northeast 432 497 27,400 960 Climbing Fort Worth Center
09:16AM 31.4597 -94.5128 31° Northeast 449 517 28,400 960 Climbing Fort Worth Center
09:17AM 31.5686 -94.4364 31° Northeast 449 517 29,400 960 Climbing Fort Worth Center
09:18AM 31.6775 -94.3619 30° Northeast 449 517 30,400 780 Climbing Fort Worth Center
09:19AM 31.7864 -94.2850 31° Northeast 449 517 31,000 300 Climbing Fort Worth Center
09:20AM 31.8969 -94.2081 31° Northeast 455 524 31,000  Level Fort Worth Center
09:21AM 32.0078 -94.1306 31° Northeast 455 524 31,000  Level Fort Worth Center
09:22AM 32.1144 -94.0556 31° Northeast 455 524 31,000  Level Fort Worth Center
09:23AM 32.2206 -93.9731 33° Northeast 455 524 31,000  Level Fort Worth Center
09:24AM 32.3314 -93.8975 30° Northeast 455 524 31,000  Level Fort Worth Center
09:25AM 32.4397 -93.8172 32° Northeast 455 524 31,000  Level Fort Worth Center
09:26AM 32.5522 -93.7386 30° Northeast 455 524 31,000  Level Fort Worth Center
09:27AM 32.6667 -93.6600 30° Northeast 455 524 31,000  Level Fort Worth Center
09:28AM 32.7792 -93.5786 31° Northeast 455 524 31,000  Level Fort Worth Center
09:29AM 32.8894 -93.4997 31° Northeast 455 524 31,000  Level Fort Worth Center
09:30AM 33.0017 -93.4181 31° Northeast 460 529 31,000 -660 Level Fort Worth Center
09:31AM 33.1261 -93.3283 31° Northeast 465 535 29,700 -1,140 Descending Fort Worth Center
09:33AM 33.3100 -93.1958 31° Northeast 485 558 28,100 -1,020 Descending Memphis Center
09:34AM 33.4203 -93.1175 31° Northeast 472 543 27,100 -1,020 Descending Memphis Center
09:35AM 33.5303 -93.0386 31° Northeast 466 536 26,100 -1,020 Descending Memphis Center
09:36AM 33.6386 -92.9597 31° Northeast 461 531 25,100 -1,020 Descending Memphis Center
09:37AM 33.7467 -92.8803 31° Northeast 461 531 24,100 -1,020 Descending Memphis Center
09:38AM 33.8525 -92.8033 31° Northeast 456 525 23,100 -1,020 Descending Memphis Center
09:38AM 33.8864 -92.7794 30° Northeast 442 509 22,700 -2,700 Descending Memphis Center
09:39AM 33.9561 -92.7261 32° Northeast 450 518 20,400 -4,320 Descending Memphis Center
09:39AM 34.0114 -92.6850 32° Northeast 433 498 17,500 -4,320 Descending Memphis Center
09:40AM 34.0536 -92.6536 32° Northeast 432 497 16,100 -4,020 Descending Memphis Center
09:40AM 34.1003 -92.6147 35° Northeast 388 447 13,500 -4,200 Descending Memphis Center
09:41AM 34.1403 -92.5856 31° Northeast 398 458 11,900 -3,360 Descending Memphis Center
09:41AM 34.1889 -92.5517 30° Northeast 337 388 10,100 -1,920 Descending Memphis Center
09:42AM 34.2228 -92.5225 35° Northeast 363 418 10,000 -120 Descending Memphis Center
09:42AM 34.2694 -92.4883 31° Northeast 350 403 10,000  Level Memphis Center
09:43AM 34.3075 -92.4592 32° Northeast 353 406 10,000  Level Memphis Center
09:43AM 34.3581 -92.4253 29° Northeast 357 411 10,000  Level Memphis Center
09:44AM 34.3897 -92.3983 35° Northeast 348 400 10,000  Level Memphis Center
09:45AM 34.4428 -92.3567 33° Northeast 356 410 10,000 -420 Level Memphis Center
09:45AM 34.4700 -92.3397 27° Northeast 347 399 9,600 -2,040 Descending Memphis Center
09:46AM 34.5122 -92.3056 34° Northeast 292 336 8,000 -2,400 Descending Memphis Center
09:46AM 34.5419 -92.2858 29° Northeast 322 371 7,200 -2,400 Descending Memphis Center
09:47AM 34.5861 -92.2517 32° Northeast 293 337 5,600 -2,100 Descending Memphis Center
09:47AM 34.6094 -92.2319 35° Northeast 298 343 5,100 -600 Descending Memphis Center
09:48AM 34.6456 -92.1925 42° Northeast 287 330 5,000 -120 Descending Memphis Center
09:48AM 34.6667 -92.1650 47° Northeast 285 328 5,000 -1,020 Level Memphis Center
09:49AM 34.6967 -92.1153 54° Northeast 287 330 4,000 -1,620 Descending Memphis Center
09:49AM 34.7158 -92.0878 50° Northeast 273 314 3,400 -1,920 Descending Memphis Center
09:50AM 34.7500 -92.0356 51° Northeast 293 337 2,100 -1,440 Descending Memphis Center
09:50AM 34.7689 -92.0131 44° Northeast 278 320 2,000 -120 Descending Memphis Center
09:51AM 34.8006 -91.9986 21° North 228 262 2,000  Level Memphis Center
09:51AM 34.8172 -92.0064 339° North 211 243 2,000  Level Memphis Center
09:52AM 34.8439 -92.0397 314° West 174 200 2,000  Level Memphis Center
09:52AM 34.8478 -92.0550 287° West 151 174 2,000  Level Memphis Center
09:53AM 34.8367 -92.0953 251° West 141 162 2,000  Level Memphis Center
09:53AM 34.8347 -92.1003 245° Southwest 103 119 2,000  Level Memphis Center
09:54AM 34.8092 -92.1303 224° Southwest 136 157 2,000 -240 Level Memphis Center
09:55AM 34.7817 -92.1625 224° Southwest 126 145 1,600 -600 Descending Memphis Center
09:56AM 34.7603 -92.1897 226° Southwest 115 132 900 -720 Descending Memphis Center